createdAt,value
2019-01-09T00:03:14.884Z,64.68
2019-01-09T00:05:48.590Z,64.68
2019-01-09T00:08:22.249Z,64.53
2019-01-09T00:10:55.847Z,64.54
2019-01-09T00:13:29.482Z,64.63
2019-01-09T00:16:03.088Z,64.54
2019-01-09T00:18:36.714Z,64.38
2019-01-09T00:21:10.309Z,64.47
2019-01-09T00:23:44.007Z,64.69
2019-01-09T00:26:17.599Z,64.77
2019-01-09T00:28:51.293Z,64.65
2019-01-09T00:31:24.882Z,64.52
2019-01-09T00:33:58.503Z,64.41
2019-01-09T00:36:32.125Z,64.41
2019-01-09T00:39:45.598Z,64.32
2019-01-09T00:42:19.177Z,64.36
2019-01-09T00:44:52.807Z,64.15
2019-01-09T00:47:26.411Z,64.43
2019-01-09T00:50:00.262Z,64.17
2019-01-09T00:52:33.810Z,64.34
2019-01-09T00:55:47.269Z,64.05
2019-01-09T00:58:20.856Z,64.42
2019-01-09T01:00:54.499Z,64.46
2019-01-09T01:16:43.044Z,64.24
2019-01-09T01:19:28.914Z,64.15
2019-01-09T01:25:47.475Z,63.41
2019-01-09T01:28:52.085Z,63.05
2019-01-09T01:32:04.285Z,62.68
2019-01-09T01:35:16.387Z,62.37
2019-01-09T01:38:28.620Z,62.08
2019-01-09T01:48:06.266Z,60.73
2019-01-09T01:51:19.832Z,60.67
2019-01-09T01:54:32.003Z,60.44
2019-01-09T01:57:44.218Z,60.12
2019-01-09T02:04:14.952Z,58.79
2019-01-09T02:07:27.171Z,60.31
2019-01-09T02:10:40.639Z,60.06
2019-01-09T02:13:52.850Z,58.59
2019-01-09T02:17:05.114Z,58.81
2019-01-09T02:23:35.813Z,58.92
2019-01-09T02:32:40.971Z,59.43
2019-01-09T02:35:14.583Z,59.36
2019-01-09T02:37:48.239Z,59.24
2019-01-09T02:40:21.882Z,59.12
2019-01-09T02:42:55.607Z,58.96
2019-01-09T02:45:29.220Z,58.91
2019-01-09T02:48:02.865Z,59.10
2019-01-09T02:50:36.495Z,59.20
2019-01-09T02:53:10.126Z,58.95
2019-01-09T02:55:43.999Z,58.68
2019-01-09T02:58:17.722Z,58.49
2019-01-09T03:00:51.338Z,57.83
2019-01-09T03:03:25.058Z,58.06
2019-01-09T03:05:58.650Z,58.32
2019-01-09T03:08:32.389Z,58.38
2019-01-09T03:11:06.010Z,58.51
2019-01-09T03:13:39.626Z,58.08
2019-01-09T03:16:13.230Z,57.90
2019-01-09T03:18:46.882Z,58.61
2019-01-09T03:21:22.464Z,59.00
2019-01-09T03:23:55.851Z,58.76
2019-01-09T03:26:41.338Z,58.96
2019-01-09T03:29:14.978Z,58.96
2019-01-09T03:31:48.578Z,58.42
2019-01-09T03:34:22.301Z,58.21
2019-01-09T03:36:55.921Z,58.46
2019-01-09T03:39:29.652Z,58.47
2019-01-09T03:42:03.251Z,58.73
2019-01-09T03:44:36.993Z,58.46
2019-01-09T03:47:10.594Z,57.60
2019-01-09T03:49:44.241Z,58.52
2019-01-09T03:52:17.830Z,58.24
2019-01-09T03:54:51.457Z,58.65
2019-01-09T03:57:25.051Z,58.79
2019-01-09T03:59:58.760Z,58.53
2019-01-09T04:02:32.362Z,58.40
2019-01-09T04:05:06.098Z,58.44
2019-01-09T04:07:39.698Z,58.47
2019-01-09T04:10:13.330Z,55.78
2019-01-09T04:12:46.928Z,57.46
2019-01-09T04:15:20.776Z,58.17
2019-01-09T04:17:54.377Z,57.68
2019-01-09T04:23:07.163Z,57.56
2019-01-09T04:25:40.805Z,57.32
2019-01-09T04:28:14.399Z,57.59
2019-01-09T04:30:48.065Z,57.64
2019-01-09T04:33:21.724Z,57.06
2019-01-09T04:35:55.372Z,57.39
2019-01-09T04:38:28.980Z,57.60
2019-01-09T04:41:02.714Z,57.16
2019-01-09T04:43:36.306Z,57.82
2019-01-09T04:46:10.038Z,57.52
2019-01-09T04:48:43.641Z,57.73
2019-01-09T04:51:17.380Z,57.22
2019-01-09T04:53:50.990Z,57.03
2019-01-09T04:56:24.642Z,57.25
2019-01-09T04:58:58.244Z,57.39
2019-01-09T05:01:31.958Z,57.40
2019-01-09T05:04:05.567Z,57.02
2019-01-09T05:06:39.205Z,57.08
2019-01-09T05:09:12.802Z,57.50
2019-01-09T05:11:46.460Z,57.09
2019-01-09T05:14:20.053Z,56.90
2019-01-09T05:16:53.779Z,57.62
2019-01-09T05:19:27.403Z,57.08
2019-01-09T05:22:01.049Z,57.12
2019-01-09T05:24:34.648Z,56.99
2019-01-09T05:27:08.370Z,57.29
2019-01-09T05:29:41.966Z,57.40
2019-01-09T05:32:15.704Z,57.33
2019-01-09T05:34:49.304Z,56.89
2019-01-09T05:40:02.104Z,57.29
2019-01-09T05:42:35.860Z,57.06
2019-01-09T05:45:09.474Z,57.30
2019-01-09T05:47:43.195Z,57.45
2019-01-09T05:50:16.801Z,57.61
2019-01-09T05:52:50.445Z,57.39
2019-01-09T05:55:24.044Z,57.31
2019-01-09T05:57:57.680Z,57.39
2019-01-09T06:00:31.310Z,57.18
2019-01-09T06:03:04.966Z,57.33
2019-01-09T06:05:38.638Z,56.93
2019-01-09T06:08:12.283Z,56.57
2019-01-09T06:10:45.888Z,56.95
2019-01-09T06:13:19.623Z,56.91
2019-01-09T06:15:53.224Z,56.92
2019-01-09T06:21:05.873Z,57.05
2019-01-09T06:26:39.087Z,56.84
2019-01-09T06:29:12.726Z,57.42
2019-01-09T06:31:46.375Z,57.37
2019-01-09T06:34:39.281Z,57.23
2019-01-09T06:37:13.044Z,57.53
2019-01-09T06:39:46.662Z,57.42
2019-01-09T06:42:20.309Z,57.94
2019-01-09T06:44:53.907Z,57.42
2019-01-09T06:47:46.899Z,58.08
2019-01-09T06:50:20.498Z,57.77
2019-01-09T06:52:54.149Z,57.89
2019-01-09T06:55:27.777Z,57.59
2019-01-09T06:58:01.390Z,57.83
2019-01-09T07:00:34.987Z,57.44
2019-01-09T07:03:08.636Z,57.18
2019-01-09T07:05:42.259Z,56.75
2019-01-09T07:08:15.998Z,56.29
2019-01-09T07:10:49.598Z,57.17
2019-01-09T07:13:23.231Z,57.16
2019-01-09T07:15:56.833Z,57.13
2019-01-09T07:18:30.472Z,56.68
2019-01-09T07:21:04.081Z,56.70
2019-01-09T07:23:37.714Z,56.88
2019-01-09T07:26:11.316Z,57.41
2019-01-09T07:28:44.945Z,57.34
2019-01-09T07:31:18.587Z,57.26
2019-01-09T07:33:52.304Z,57.53
2019-01-09T07:36:26.008Z,57.63
2019-01-09T07:38:59.634Z,57.58
2019-01-09T07:41:33.231Z,58.04
2019-01-09T07:44:06.871Z,58.11
2019-01-09T07:46:40.485Z,58.42
2019-01-09T07:49:14.091Z,58.68
2019-01-09T07:51:47.694Z,58.43
2019-01-09T07:54:21.406Z,58.54
2019-01-09T07:56:55.006Z,58.77
2019-01-09T07:59:28.685Z,58.82
2019-01-09T08:02:02.287Z,59.02
2019-01-09T08:04:35.936Z,58.83
2019-01-09T08:07:09.524Z,58.57
2019-01-09T08:09:43.171Z,59.10
2019-01-09T08:12:16.760Z,58.88
2019-01-09T08:14:50.416Z,58.82
2019-01-09T08:17:24.023Z,58.91
2019-01-09T08:19:57.663Z,58.79
2019-01-09T08:22:31.260Z,58.92
2019-01-09T08:25:44.856Z,58.77
2019-01-09T08:28:18.459Z,58.34
2019-01-09T08:30:52.113Z,58.57
2019-01-09T08:33:25.711Z,58.55
2019-01-09T08:35:59.433Z,58.63
2019-01-09T08:38:33.035Z,58.43
2019-01-09T08:41:26.150Z,58.91
2019-01-09T08:43:59.755Z,58.69
2019-01-09T08:46:33.400Z,58.74
2019-01-09T08:49:07.007Z,58.58
2019-01-09T08:51:40.743Z,58.53
2019-01-09T08:54:14.346Z,58.57
2019-01-09T08:56:47.989Z,58.46
2019-01-09T08:59:21.587Z,57.33
2019-01-09T09:01:55.245Z,58.50
2019-01-09T09:04:28.871Z,58.37
2019-01-09T09:07:02.585Z,58.73
2019-01-09T09:12:55.607Z,58.65
2019-01-09T09:15:29.212Z,58.70
2019-01-09T09:18:02.858Z,58.80
2019-01-09T09:20:36.469Z,59.00
2019-01-09T09:23:10.474Z,58.56
2019-01-09T09:25:44.035Z,59.05
2019-01-09T09:28:17.750Z,59.41
2019-01-09T09:30:51.341Z,59.49
2019-01-09T09:33:24.990Z,59.81
2019-01-09T09:35:58.596Z,60.04
2019-01-09T09:38:32.310Z,60.01
2019-01-09T09:41:05.906Z,60.07
2019-01-09T09:43:39.556Z,59.81
2019-01-09T09:46:13.161Z,59.78
2019-01-09T09:48:46.800Z,59.93
2019-01-09T09:51:20.421Z,59.84
2019-01-09T09:53:54.130Z,59.75
2019-01-09T09:56:27.736Z,59.48
2019-01-09T09:59:01.377Z,59.04
2019-01-09T10:01:34.983Z,58.93
2019-01-09T10:04:08.642Z,58.71
2019-01-09T10:06:42.232Z,58.59
2019-01-09T10:15:20.403Z,58.62
2019-01-09T10:17:54.011Z,58.34
2019-01-09T10:20:27.730Z,58.34
2019-01-09T10:23:20.756Z,58.46
2019-01-09T10:25:54.397Z,58.46
2019-01-09T10:28:28.027Z,58.47
2019-01-09T10:31:01.656Z,58.52
2019-01-09T10:33:35.265Z,58.52
2019-01-09T10:36:28.173Z,58.63
2019-01-09T10:42:26.681Z,58.49
2019-01-09T10:48:19.214Z,58.92
2019-01-09T10:50:52.830Z,59.01
2019-01-09T10:53:26.519Z,59.05
2019-01-09T10:56:00.090Z,59.21
2019-01-09T10:58:33.822Z,59.55
2019-01-09T11:01:07.425Z,59.65
2019-01-09T11:03:41.065Z,59.40
2019-01-09T11:06:14.670Z,59.63
2019-01-09T11:08:48.401Z,59.60
2019-01-09T11:11:22.001Z,59.71
2019-01-09T11:13:55.733Z,59.39
2019-01-09T11:16:48.620Z,59.67
2019-01-09T11:22:01.273Z,59.08
2019-01-09T11:24:34.907Z,59.55
2019-01-09T11:27:08.515Z,60.11
2019-01-09T11:29:42.167Z,59.82
2019-01-09T11:32:35.044Z,60.02
2019-01-09T11:35:20.628Z,60.10
2019-01-09T11:37:54.335Z,60.10
2019-01-09T11:40:27.980Z,60.24
2019-01-09T11:43:03.667Z,60.49
2019-01-09T11:45:36.937Z,60.52
2019-01-09T11:48:10.538Z,60.81
2019-01-09T11:50:44.180Z,60.81
2019-01-09T11:53:17.784Z,60.73
2019-01-09T11:55:51.417Z,60.83
2019-01-09T11:58:25.037Z,60.79
2019-01-09T12:00:58.785Z,60.91
2019-01-09T12:03:32.391Z,61.05
2019-01-09T12:06:06.030Z,60.88
2019-01-09T12:08:39.663Z,60.85
2019-01-09T12:11:13.305Z,60.49
2019-01-09T12:14:06.190Z,60.71
2019-01-09T12:16:39.847Z,60.71
2019-01-09T12:19:13.449Z,61.13
2019-01-09T12:22:26.994Z,61.30
2019-01-09T12:25:00.589Z,61.30
2019-01-09T12:27:34.331Z,61.33
2019-01-09T12:33:46.599Z,61.62
2019-01-09T12:36:20.204Z,61.81
2019-01-09T12:38:53.842Z,61.94
2019-01-09T12:41:27.434Z,61.92
2019-01-09T12:44:01.172Z,61.88
2019-01-09T12:46:35.795Z,61.83
2019-01-09T12:49:09.431Z,61.61
2019-01-09T12:51:43.026Z,61.48
2019-01-09T12:54:16.670Z,61.38
2019-01-09T12:56:50.199Z,61.22
2019-01-09T12:59:23.944Z,61.09
2019-01-09T13:01:57.546Z,60.78
2019-01-09T13:04:31.223Z,60.47
2019-01-09T13:07:04.934Z,60.32
2019-01-09T13:09:38.578Z,60.36
2019-01-09T13:12:12.177Z,58.67
2019-01-09T13:17:24.881Z,59.06
2019-01-09T13:19:58.598Z,59.38
2019-01-09T13:22:32.197Z,58.81
2019-01-09T13:25:45.661Z,59.57
2019-01-09T13:28:19.349Z,59.83
2019-01-09T13:30:53.077Z,59.75
2019-01-09T13:33:27.629Z,59.84
2019-01-09T13:36:01.266Z,60.04
2019-01-09T13:38:34.866Z,60.20
2019-01-09T13:41:08.503Z,60.16
2019-01-09T13:43:42.104Z,60.27
2019-01-09T13:46:15.775Z,60.25
2019-01-09T13:49:08.640Z,60.46
2019-01-09T13:51:42.289Z,60.42
2019-01-09T13:54:15.911Z,60.34
2019-01-09T13:56:49.544Z,60.38
2019-01-09T13:59:42.441Z,60.69
2019-01-09T14:02:16.210Z,60.60
2019-01-09T14:04:49.810Z,60.37
2019-01-09T14:07:23.458Z,60.33
2019-01-09T14:09:57.055Z,60.18
2019-01-09T14:12:30.693Z,59.87
2019-01-09T14:18:22.812Z,60.76
2019-01-09T14:20:56.414Z,61.17
2019-01-09T14:23:30.067Z,61.21
2019-01-09T14:26:15.291Z,61.25
2019-01-09T14:28:39.035Z,61.32
2019-01-09T14:31:12.639Z,61.43
2019-01-09T14:33:46.359Z,61.31
2019-01-09T14:36:19.960Z,61.66
2019-01-09T14:38:53.704Z,61.65
2019-01-09T14:41:27.306Z,61.81
2019-01-09T14:44:01.045Z,62.01
2019-01-09T14:46:34.646Z,62.23
2019-01-09T14:49:08.373Z,62.15
2019-01-09T14:51:43.293Z,62.08
2019-01-09T14:54:17.380Z,62.03
2019-01-09T14:56:51.017Z,61.94
2019-01-09T15:02:03.845Z,61.74
2019-01-09T15:04:37.562Z,61.63
2019-01-09T15:07:11.158Z,61.59
2019-01-09T15:09:44.802Z,61.13
2019-01-09T15:12:18.402Z,61.52
2019-01-09T15:14:52.093Z,61.48
2019-01-09T15:17:25.668Z,61.37
2019-01-09T15:19:59.328Z,61.39
2019-01-09T15:22:32.921Z,61.18
2019-01-09T15:25:53.374Z,61.31
2019-01-09T15:28:39.464Z,61.42
2019-01-09T15:31:13.147Z,61.37
2019-01-09T15:33:46.751Z,61.20
2019-01-09T15:39:20.143Z,61.42
2019-01-09T15:41:53.747Z,61.30
2019-01-09T15:44:27.496Z,61.11
2019-01-09T15:47:01.086Z,61.26
2019-01-09T15:49:34.733Z,61.23
2019-01-09T15:52:08.331Z,61.23
2019-01-09T15:54:41.970Z,61.42
2019-01-09T15:57:15.566Z,61.29
2019-01-09T15:59:49.203Z,61.40
2019-01-09T16:02:22.802Z,61.40
2019-01-09T16:04:56.544Z,61.30
2019-01-09T16:07:30.167Z,61.30
2019-01-09T16:13:04.115Z,61.34
2019-01-09T16:15:37.717Z,61.20
2019-01-09T16:18:11.358Z,61.22
2019-01-09T16:20:44.956Z,61.10
2019-01-09T16:23:18.703Z,61.13
2019-01-09T16:25:52.393Z,61.08
2019-01-09T16:28:26.033Z,61.09
2019-01-09T16:34:05.419Z,61.12
2019-01-09T16:36:39.026Z,61.09
2019-01-09T16:39:12.808Z,61.00
2019-01-09T16:41:46.424Z,60.99
2019-01-09T16:44:20.061Z,60.77
2019-01-09T16:46:53.662Z,60.88
2019-01-09T16:49:28.157Z,60.93
2019-01-09T16:52:02.706Z,60.88
2019-01-09T16:54:36.416Z,60.72
2019-01-09T17:00:02.598Z,60.55
2019-01-09T17:02:36.502Z,60.53
2019-01-09T17:05:50.003Z,60.63
2019-01-09T17:08:23.599Z,60.47
2019-01-09T17:10:57.171Z,60.50
2019-01-09T17:13:30.772Z,60.48
2019-01-09T17:19:03.924Z,60.61
2019-01-09T17:21:37.873Z,60.33
2019-01-09T17:24:30.864Z,60.02
2019-01-09T17:27:04.545Z,60.02
2019-01-09T17:29:57.459Z,60.50
2019-01-09T17:32:31.056Z,60.50
2019-01-09T17:35:46.388Z,60.00
2019-01-09T17:38:19.985Z,60.05
2019-01-09T17:40:53.723Z,60.18
2019-01-09T17:43:27.327Z,59.97
2019-01-09T17:46:00.982Z,60.18
2019-01-09T17:48:34.584Z,59.80
2019-01-09T17:51:08.225Z,60.13
2019-01-09T17:53:41.825Z,60.07
2019-01-09T17:56:15.486Z,60.05
2019-01-09T17:58:49.145Z,59.82
2019-01-09T18:01:42.087Z,59.95
2019-01-09T18:04:15.931Z,59.92
2019-01-09T18:06:49.581Z,59.94
2019-01-09T18:09:23.188Z,59.79
2019-01-09T18:11:56.836Z,59.95
2019-01-09T18:14:30.534Z,60.00
2019-01-09T18:17:04.147Z,60.06
2019-01-09T18:19:37.761Z,60.02
2019-01-09T18:24:52.096Z,60.16
2019-01-09T18:30:44.399Z,60.24
2019-01-09T18:33:57.911Z,60.21
2019-01-09T18:37:10.097Z,60.22
2019-01-09T18:40:23.578Z,60.26
2019-01-09T18:50:00.735Z,60.17
2019-01-09T18:53:12.992Z,60.27
2019-01-09T18:55:48.749Z,60.17
2019-01-09T18:58:22.022Z,60.17
2019-01-09T19:00:55.671Z,60.05
2019-01-09T19:03:29.279Z,60.12
2019-01-09T19:06:44.650Z,60.03
2019-01-09T19:09:37.323Z,60.07
2019-01-09T19:12:10.963Z,60.13
2019-01-09T19:14:44.603Z,60.15
2019-01-09T19:17:19.935Z,60.08
2019-01-09T19:19:53.671Z,58.98
2019-01-09T19:22:27.269Z,60.21
2019-01-09T19:25:00.918Z,60.36
2019-01-09T19:27:34.525Z,60.26
2019-01-09T19:30:48.004Z,60.23
2019-01-09T19:33:21.604Z,60.20
2019-01-09T19:35:55.228Z,60.09
2019-01-09T19:38:28.857Z,60.14
2019-01-09T19:41:02.499Z,59.85
2019-01-09T19:43:36.103Z,60.15
2019-01-09T19:46:09.750Z,60.04
2019-01-09T19:48:43.374Z,60.00
2019-01-09T19:51:56.938Z,59.97
2019-01-09T19:54:30.563Z,59.85
2019-01-09T19:57:04.220Z,59.25
2019-01-09T19:59:37.822Z,59.92
2019-01-09T20:07:57.621Z,59.42
2019-01-09T20:10:31.131Z,59.73
2019-01-09T20:15:43.273Z,59.54
2019-01-09T20:20:56.204Z,59.46
2019-01-09T20:23:29.865Z,59.40
2019-01-09T20:26:03.418Z,59.29
2019-01-09T20:28:37.161Z,59.46
2019-01-09T20:31:10.757Z,59.21
2019-01-09T20:33:44.417Z,59.26
2019-01-09T20:36:18.050Z,59.11
2019-01-09T20:38:51.673Z,59.09
2019-01-09T20:41:25.254Z,59.03
2019-01-09T20:43:58.977Z,59.31
2019-01-09T20:46:32.655Z,59.25
2019-01-09T20:49:06.270Z,58.97
2019-01-09T20:51:39.915Z,59.13
2019-01-09T20:57:32.093Z,58.95
2019-01-09T21:00:45.544Z,58.82
2019-01-09T21:03:19.376Z,58.87
2019-01-09T21:05:53.016Z,58.87
2019-01-09T21:08:26.736Z,58.86
2019-01-09T21:11:00.325Z,58.73
2019-01-09T21:13:34.087Z,58.75
2019-01-09T21:16:07.642Z,58.87
2019-01-09T21:21:20.538Z,58.72
2019-01-09T21:23:54.258Z,58.75
2019-01-09T21:26:27.934Z,58.56
2019-01-09T21:31:40.439Z,58.77
2019-01-09T21:34:14.107Z,58.71
2019-01-09T21:36:47.701Z,58.87
2019-01-09T21:39:21.417Z,58.82
2019-01-09T21:41:55.018Z,58.74
2019-01-09T21:44:28.766Z,58.84
2019-01-09T21:47:02.359Z,58.91
2019-01-09T21:49:36.080Z,58.84
2019-01-09T21:52:09.684Z,58.64
2019-01-09T21:54:43.326Z,58.88
2019-01-09T21:57:16.930Z,58.82
2019-01-09T21:59:50.584Z,58.60
2019-01-09T22:02:24.180Z,58.86
2019-01-09T22:07:37.139Z,58.80
2019-01-09T22:10:50.705Z,58.74
2019-01-09T22:13:24.297Z,58.57
2019-01-09T22:15:58.018Z,58.73
2019-01-09T22:18:31.624Z,58.91
2019-01-09T22:21:05.362Z,58.69
2019-01-09T22:23:38.957Z,58.85
2019-01-09T22:28:52.025Z,58.69
2019-01-09T22:31:25.664Z,58.69
2019-01-09T22:33:59.283Z,58.75
2019-01-09T22:36:32.920Z,58.64
2019-01-09T22:45:44.057Z,58.65
2019-01-09T22:48:18.033Z,58.60
2019-01-09T22:50:51.659Z,58.85
2019-01-09T22:53:25.291Z,58.64
2019-01-09T22:55:58.888Z,58.56
2019-01-09T23:01:51.519Z,58.79
2019-01-09T23:04:25.085Z,58.80
2019-01-09T23:06:58.781Z,58.75
2019-01-09T23:09:32.321Z,58.50
2019-01-09T23:12:05.816Z,58.83
2019-01-09T23:14:39.464Z,58.81
2019-01-09T23:17:12.982Z,58.63
2019-01-09T23:22:25.691Z,58.77
2019-01-09T23:24:59.348Z,58.71
2019-01-09T23:27:32.948Z,58.61
2019-01-09T23:30:25.870Z,58.74
2019-01-09T23:32:59.468Z,58.79
2019-01-09T23:36:12.963Z,58.84
2019-01-09T23:38:46.598Z,58.64
2019-01-09T23:41:20.417Z,58.72
2019-01-09T23:43:54.047Z,58.73
2019-01-09T23:46:27.720Z,58.70
2019-01-09T23:49:01.353Z,58.66
2019-01-09T23:51:35.013Z,58.68
2019-01-09T23:54:27.917Z,58.80
2019-01-09T23:57:01.603Z,58.83
2019-01-09T23:59:35.224Z,58.88
